Kathy C — 2CTI7 — position and weather

sailwx.info

Track history (hours):
 
Tides and Currents Weather Stations Pressure Air Temp Water Temp Dewpoint Dewpoint Depression Visibility Wind Speed Wind Dir Waves Ship Positions

Kathy C

Last reported at 2017-Jun-23 16:05 UTC. Time now 2017-Jun-23 22:26 UTC.
Position N 50°31' W 000°17'.

Length 106 m; draft 5.8 m.

Type: Cargo ship. MMSI: 235075591.

Date/timePositionNaut miles runAvg speedWind from/ knotsBaromVisibWave heightAir tempDewpointWater temp
2017-Jun-23 16:05N 50°31' W 000°17'111.8
2017-Jun-23 16:00N 50°31' W 000°16'612.1
2017-Jun-23 15:31N 50°32' W 000°07'612.2
2017-Jun-23 15:00N 50°33' E 000°03'1212.3
2017-Jun-23 14:00N 50°36' E 000°21'612.0
2017-Jun-23 13:29N 50°38' E 000°31'511.3
2017-Jun-23 13:00N 50°41' E 000°38'610.9
2017-Jun-23 12:30N 50°44' E 000°45'29 9.1
2017-Jun-23 09:19N 51°02' E 001°22'3 9.8
2017-Jun-23 09:00N 51°03' E 001°25'611.3
2017-Jun-23 08:30N 51°07' E 001°32'612.4
2017-Jun-23 08:00N 51°11' E 001°40'612.8
2017-Jun-23 07:30N 51°16' E 001°47'713.9
2017-Jun-23 07:00N 51°22' E 001°52'713.1
2017-Jun-23 06:30N 51°28' E 001°57'611.8
2017-Jun-23 06:00N 51°32' E 002°04'612.6
2017-Jun-23 05:30N 51°36' E 002°11'612.4
2017-Jun-23 05:00N 51°41' E 002°18'87 8.4
2017-Jun-22 18:37N 52°31' E 004°13'110.5
2017-Jun-22 18:30N 52°31' E 004°15'510.1
2017-Jun-22 18:00N 52°29' E 004°23'5 9.1
2017-Jun-22 17:30N 52°28' E 004°30'4 7.6
2017-Jun-22 17:00N 52°28' E 004°36'1 1.1
2017-Jun-22 16:30N 52°28' E 004°37'4 8.5
2017-Jun-22 16:00N 52°26' E 004°43'3 5.0
2017-Jun-22 15:26N 52°24' E 004°47'0 0.1
2017-Jun-22 14:59N 52°24' E 004°47'0 0.0
2017-Jun-22 14:26N 52°24' E 004°47'0 0.0
2017-Jun-22 13:29N 52°24' E 004°47'0 0.0
2017-Jun-22 12:59N 52°24' E 004°47'0 0.0
2017-Jun-22 12:29N 52°24' E 004°47'0 0.0
2017-Jun-22 11:59N 52°24' E 004°47'0 0.0
2017-Jun-22 11:29N 52°24' E 004°47'0 0.0
2017-Jun-22 10:59N 52°24' E 004°47'0 0.0
2017-Jun-22 10:29N 52°24' E 004°47'0 0.0
2017-Jun-22 09:56N 52°24' E 004°47'0 0.0
2017-Jun-22 09:29N 52°24' E 004°47'0 0.0
2017-Jun-22 08:59N 52°24' E 004°47'0 0.0
2017-Jun-22 08:29N 52°24' E 004°47'0 0.0
2017-Jun-22 07:59N 52°24' E 004°47'0 0.0
2017-Jun-22 07:29N 52°24' E 004°47'0 0.0
2017-Jun-22 06:59N 52°24' E 004°47'0 0.0
2017-Jun-22 06:29N 52°24' E 004°47'0 0.0
2017-Jun-22 05:59N 52°24' E 004°47'0 0.0
2017-Jun-22 05:23N 52°24' E 004°47'0 0.0
2017-Jun-22 04:53N 52°24' E 004°47'0 0.0
2017-Jun-22 04:29N 52°24' E 004°47'0 0.0
2017-Jun-22 03:59N 52°24' E 004°47'0 0.0
2017-Jun-22 03:26N 52°24' E 004°47'0 0.0
2017-Jun-22 02:59N 52°24' E 004°47'0 0.0
2017-Jun-22 02:29N 52°24' E 004°47'0 0.0
2017-Jun-22 01:59N 52°24' E 004°47'0 0.0
2017-Jun-22 01:29N 52°24' E 004°47'0 0.0
2017-Jun-22 00:59N 52°24' E 004°47'0 0.0
2017-Jun-22 00:26N 52°24' E 004°47'0 0.0
2017-Jun-21 23:59N 52°24' E 004°47'0 0.0
2017-Jun-21 23:29N 52°24' E 004°47'0 0.0
2017-Jun-21 22:59N 52°24' E 004°47'0 0.0
2017-Jun-21 22:29N 52°24' E 004°47'0 0.0
2017-Jun-21 21:59N 52°24' E 004°47'0 0.0
2017-Jun-21 21:29N 52°24' E 004°47'0 0.0
2017-Jun-21 20:59N 52°24' E 004°47'0 0.0
2017-Jun-21 20:26N 52°24' E 004°47'0 0.0
2017-Jun-21 19:59N 52°24' E 004°47'0 0.0
2017-Jun-21 19:29N 52°24' E 004°47'0 0.0
2017-Jun-21 18:59N 52°24' E 004°47'0 0.0
2017-Jun-21 18:29N 52°24' E 004°47'0 0.0
2017-Jun-21 17:59N 52°24' E 004°47'0 0.0
2017-Jun-21 17:29N 52°24' E 004°47'0 0.0
2017-Jun-21 16:59N 52°24' E 004°47'0 0.0
2017-Jun-21 16:29N 52°24' E 004°47'0 0.0
2017-Jun-21 15:59N 52°24' E 004°47'0 0.0
2017-Jun-21 15:29N 52°24' E 004°47'0 0.0
2017-Jun-21 14:59N 52°24' E 004°47'0 0.0
2017-Jun-21 14:29N 52°24' E 004°47'0 0.0
2017-Jun-21 13:29N 52°24' E 004°47'0 0.0
2017-Jun-21 12:59N 52°24' E 004°47'0 0.0
2017-Jun-21 12:29N 52°24' E 004°47'0 0.0
2017-Jun-21 11:59N 52°24' E 004°47'0 0.0
2017-Jun-21 11:29N 52°24' E 004°47'0 0.0
2017-Jun-21 10:59N 52°24' E 004°47'0 0.0
2017-Jun-21 10:29N 52°24' E 004°47'0 0.0
2017-Jun-21 09:53N 52°24' E 004°47'0 0.0
2017-Jun-21 09:29N 52°24' E 004°47'0 0.0
2017-Jun-21 08:56N 52°24' E 004°47'0 0.0
2017-Jun-21 08:26N 52°24' E 004°47'0 0.0
2017-Jun-21 07:59N 52°24' E 004°47'0 0.0
2017-Jun-21 07:26N 52°24' E 004°47'0 0.0
2017-Jun-21 06:59N 52°24' E 004°47'0 0.0
2017-Jun-21 06:29N 52°24' E 004°47'0 0.0
2017-Jun-21 05:56N 52°24' E 004°47'0 0.0
2017-Jun-21 05:29N 52°24' E 004°47'0 0.0
2017-Jun-21 04:56N 52°24' E 004°47'0 0.0
2017-Jun-21 04:29N 52°24' E 004°47'0 0.0
2017-Jun-21 03:59N 52°24' E 004°47'0 0.0
2017-Jun-21 03:17N 52°24' E 004°47'0 0.0
2017-Jun-21 02:59N 52°24' E 004°47'0 0.0
2017-Jun-21 02:29N 52°24' E 004°47'0 0.0
2017-Jun-21 01:59N 52°24' E 004°47'0 0.0
2017-Jun-21 01:29N 52°24' E 004°47'0 0.0
2017-Jun-21 00:59N 52°24' E 004°47'0 0.0
2017-Jun-21 00:29N 52°24' E 004°47'0 0.0
2017-Jun-20 23:59N 52°24' E 004°47'0 0.0
2017-Jun-20 23:29N 52°24' E 004°47'0 0.0
2017-Jun-20 22:59N 52°24' E 004°47'0 0.0
2017-Jun-20 22:29N 52°24' E 004°47'0 0.0
2017-Jun-20 21:59N 52°24' E 004°47'0 0.0
2017-Jun-20 21:29N 52°24' E 004°47'0 0.0
2017-Jun-20 20:59N 52°24' E 004°47'0 0.1
2017-Jun-20 20:31N 52°24' E 004°47'2 4.0
2017-Jun-20 20:00N 52°26' E 004°45'5 9.7
2017-Jun-20 19:30N 52°28' E 004°38'1 2.2
2017-Jun-20 19:00N 52°28' E 004°36'2 3.3
2017-Jun-20 18:30N 52°28' E 004°33'4 8.9
2017-Jun-20 18:01N 52°28' E 004°26'4 7.6
2017-Jun-20 17:30N 52°28' E 004°20'510.3
2017-Jun-20 17:01N 52°29' E 004°11'5 9.2
2017-Jun-20 16:30N 52°33' E 004°06'510.4
2017-Jun-20 16:00N 52°37' E 004°03'510.8
2017-Jun-20 15:30N 52°42' E 004°00'612.5
2017-Jun-20 15:00N 52°48' E 003°57'1511.2
2017-Jun-20 13:39N 53°02' E 004°10'411.5
2017-Jun-20 13:19N 53°04' E 004°14'711.3
2017-Jun-20 12:39N 53°09' E 004°23'510.7
2017-Jun-20 12:13N 53°13' E 004°28'310.6
2017-Jun-20 11:55N 53°16' E 004°30'511.3
2017-Jun-20 11:29N 53°21' E 004°33'711.9
2017-Jun-20 10:55N 53°27' E 004°37'512.4
2017-Jun-20 10:29N 53°30' E 004°45'813.3
2017-Jun-20 09:55N 53°32' E 004°56'713.6
2017-Jun-20 09:25N 53°35' E 005°07'713.5
2017-Jun-20 08:56N 53°37' E 005°18'613.5
2017-Jun-20 08:30N 53°39' E 005°27'713.4
2017-Jun-20 08:00N 53°41' E 005°38'712.9
2017-Jun-20 07:28N 53°43' E 005°49'612.6
2017-Jun-20 06:59N 53°45' E 005°59'612.2
2017-Jun-20 06:28N 53°46' E 006°09'711.9
2017-Jun-20 05:54N 53°49' E 006°19'511.4
2017-Jun-20 05:28N 53°50' E 006°28'3110.9
2017-Jun-20 02:38N 53°57' E 007°19'2110.0
2017-Jun-20 00:29N 53°52' E 007°54'612.6
2017-Jun-20 00:00N 53°50' E 008°04'713.8
2017-Jun-19 23:30N 53°45' E 008°12'714.3
2017-Jun-19 23:00N 53°41' E 008°21'714.4
2017-Jun-19 22:30N 53°36' E 008°30'510.0
2017-Jun-19 22:00N 53°32' E 008°34'611.7
2017-Jun-19 21:30N 53°26' E 008°29'612.0
2017-Jun-19 21:00N 53°20' E 008°30'0 0.2
2017-Jun-19 20:29N 53°20' E 008°30'0 0.0
2017-Jun-19 19:59N 53°20' E 008°30'0 0.0
2017-Jun-19 19:29N 53°20' E 008°30'0 0.0
2017-Jun-19 18:59N 53°20' E 008°30'0 0.0
2017-Jun-19 18:29N 53°20' E 008°30'0 0.0
2017-Jun-19 17:59N 53°20' E 008°30'0 0.0
2017-Jun-19 17:26N 53°20' E 008°30'0 0.0
2017-Jun-19 16:59N 53°20' E 008°30'0 0.0
2017-Jun-19 16:23N 53°20' E 008°30'0 0.0
2017-Jun-19 15:59N 53°20' E 008°30'0 0.0
2017-Jun-19 15:29N 53°20' E 008°30'0 0.0
2017-Jun-19 14:50N 53°20' E 008°30'0 0.0
2017-Jun-19 14:29N 53°20' E 008°30'0 0.0
2017-Jun-19 13:26N 53°20' E 008°30'0 0.0
2017-Jun-19 12:59N 53°20' E 008°30'0 0.0
2017-Jun-19 12:29N 53°20' E 008°30'0 0.0
2017-Jun-19 11:59N 53°20' E 008°30'0 0.0
2017-Jun-19 11:29N 53°20' E 008°30'0 0.0
2017-Jun-19 10:59N 53°20' E 008°30'0 0.0
2017-Jun-19 09:08N 53°20' E 008°30'0 0.0
2017-Jun-19 08:59N 53°20' E 008°30'0 0.0
2017-Jun-19 08:29N 53°20' E 008°30'0 0.0
2017-Jun-19 07:59N 53°20' E 008°30'0 0.0
2017-Jun-19 07:29N 53°20' E 008°30'0 0.0
2017-Jun-19 06:59N 53°20' E 008°30'0 0.0
2017-Jun-19 06:29N 53°20' E 008°30'0 0.0
2017-Jun-19 05:59N 53°20' E 008°30'0 0.0
2017-Jun-19 05:29N 53°20' E 008°30'0 0.0
2017-Jun-19 04:59N 53°20' E 008°30'0 0.0
2017-Jun-19 04:29N 53°20' E 008°30'0 0.0
2017-Jun-19 03:56N 53°20' E 008°30'0 0.0
2017-Jun-19 03:20N 53°20' E 008°30'0 0.0
2017-Jun-19 02:59N 53°20' E 008°30'0 0.0
2017-Jun-19 02:26N 53°20' E 008°30'0 0.0
2017-Jun-19 01:56N 53°20' E 008°30'0 0.0
2017-Jun-19 01:29N 53°20' E 008°30'0 0.0
2017-Jun-19 00:59N 53°20' E 008°30'0 0.0
2017-Jun-19 00:26N 53°20' E 008°30'0 0.0
2017-Jun-18 23:59N 53°20' E 008°30'0 0.0
2017-Jun-18 23:29N 53°20' E 008°30'0 0.0
2017-Jun-18 22:59N 53°20' E 008°30'0 0.0
2017-Jun-18 22:29N 53°20' E 008°30'0 0.0
2017-Jun-18 21:59N 53°20' E 008°30'0 0.0
2017-Jun-18 21:29N 53°20' E 008°30'0 0.0
2017-Jun-18 20:59N 53°20' E 008°30'0 0.0
2017-Jun-18 20:17N 53°20' E 008°30'0 0.0
2017-Jun-18 19:53N 53°20' E 008°30'0 0.0
2017-Jun-18 19:23N 53°20' E 008°30'0 0.0
2017-Jun-18 18:59N 53°20' E 008°30'0 0.0
2017-Jun-18 18:26N 53°20' E 008°30'0 0.0
2017-Jun-18 17:59N 53°20' E 008°30'0 0.0
2017-Jun-18 17:26N 53°20' E 008°30'0 0.0
2017-Jun-18 16:41N 53°20' E 008°30'0 0.0
2017-Jun-18 16:26N 53°20' E 008°30'0 0.0
2017-Jun-18 15:53N 53°20' E 008°30'0 0.0
2017-Jun-18 15:29N 53°20' E 008°30'0 0.0
2017-Jun-18 14:50N 53°20' E 008°30'0 0.0
2017-Jun-18 13:56N 53°20' E 008°30'0 0.0
2017-Jun-18 12:56N 53°20' E 008°30'0 0.0
2017-Jun-18 12:29N 53°20' E 008°30'0 0.0
2017-Jun-18 11:59N 53°20' E 008°30'0 0.0
2017-Jun-18 11:11N 53°20' E 008°30'0 0.0
2017-Jun-18 10:59N 53°20' E 008°30'0 0.0
2017-Jun-18 10:29N 53°20' E 008°30'0 0.0
2017-Jun-18 09:59N 53°20' E 008°30'0 0.0
2017-Jun-18 09:29N 53°20' E 008°30'0 0.0
2017-Jun-18 08:56N 53°20' E 008°30'0 0.0
2017-Jun-18 06:47N 53°20' E 008°30'0 0.0
2017-Jun-18 06:20N 53°20' E 008°30'0 0.0
2017-Jun-18 05:59N 53°20' E 008°30'0 0.0
2017-Jun-18 04:29N 53°20' E 008°30'0 0.0
2017-Jun-18 03:53N 53°20' E 008°30'0 0.0
2017-Jun-18 02:11N 53°20' E 008°30'0 0.0
2017-Jun-18 00:29N 53°20' E 008°30'0 0.0
2017-Jun-17 23:44N 53°20' E 008°30'0 0.0
2017-Jun-17 23:29N 53°20' E 008°30'0 0.0
2017-Jun-17 22:53N 53°20' E 008°30'0 0.0
2017-Jun-17 22:23N 53°20' E 008°30'0 0.0
2017-Jun-17 21:56N 53°20' E 008°30'0 0.0
2017-Jun-17 21:29N 53°20' E 008°30'0 0.0
2017-Jun-17 20:56N 53°20' E 008°30'0 0.0
2017-Jun-17 20:08N 53°20' E 008°30'0 0.0
2017-Jun-17 19:56N 53°20' E 008°30'0 0.0
2017-Jun-17 19:20N 53°20' E 008°30'0 0.0
2017-Jun-17 18:56N 53°20' E 008°30'0 0.0
2017-Jun-17 15:50N 53°20' E 008°30'0 0.0
2017-Jun-17 15:26N 53°20' E 008°30'0 0.0
2017-Jun-17 14:56N 53°20' E 008°30'0 0.0
2017-Jun-17 13:20N 53°20' E 008°30'0 0.8
2017-Jun-17 13:00N 53°21' E 008°30'4 8.8
2017-Jun-17 12:30N 53°25' E 008°30'5 9.9
2017-Jun-17 12:00N 53°30' E 008°31'4 7.6
2017-Jun-17 11:30N 53°33' E 008°33'5 9.5
2017-Jun-17 11:00N 53°37' E 008°28'5 9.3
2017-Jun-17 10:30N 53°40' E 008°22'5 9.1
2017-Jun-17 10:00N 53°43' E 008°16'4 9.0
2017-Jun-17 09:30N 53°46' E 008°11'5 9.0
2017-Jun-17 09:00N 53°49' E 008°06'134 9.9
2017-Jun-16 19:21N 53°08' E 004°30'710.4
2017-Jun-16 18:39N 53°02' E 004°25'1 9.7
2017-Jun-16 18:30N 53°01' E 004°23'5 9.6
2017-Jun-16 18:01N 52°56' E 004°20'62 8.8
2017-Jun-16 10:57N 52°10' E 003°12'4 9.4
2017-Jun-16 10:29N 52°07' E 003°07'5 9.6
2017-Jun-16 09:59N 52°03' E 003°02'5 9.9
2017-Jun-16 09:30N 51°59' E 002°57'3410.9
2017-Jun-16 06:21N 51°33' E 002°21'411.7
2017-Jun-16 05:59N 51°30' E 002°16'511.2
2017-Jun-16 05:31N 51°25' E 002°12'611.0
2017-Jun-16 05:00N 51°20' E 002°09'611.4
2017-Jun-16 04:30N 51°15' E 002°05'611.6
2017-Jun-16 04:00N 51°12' E 001°57'612.0
2017-Jun-16 03:30N 51°08' E 001°49'612.2
2017-Jun-16 03:01N 51°04' E 001°43'612.4
2017-Jun-16 02:31N 50°59' E 001°36'612.0
2017-Jun-16 02:01N 50°55' E 001°30'58 9.3
2017-Jun-15 19:49N 50°21' E 000°16'4 9.4
2017-Jun-15 19:27N 50°20' E 000°11'5 9.4
2017-Jun-15 18:57N 50°19' E 000°04'4 9.3
2017-Jun-15 18:31N 50°18' W 000°03'5 9.4
2017-Jun-15 18:00N 50°16' W 000°10'5 9.3
2017-Jun-15 17:30N 50°15' W 000°17'5 9.1
2017-Jun-15 17:01N 50°14' W 000°24'5 9.2
2017-Jun-15 16:31N 50°13' W 000°31'5 9.4
2017-Jun-15 16:00N 50°12' W 000°38'5 9.6
2017-Jun-15 15:30N 50°11' W 000°45'710.2
2017-Jun-15 14:49N 50°09' W 000°56'310.7
2017-Jun-15 14:30N 50°08' W 001°00'1411.6
2017-Jun-15 13:20N 50°04' W 001°21'412.5
2017-Jun-15 13:00N 50°03' W 001°27'612.8
2017-Jun-15 12:31N 50°01' W 001°37'713.3
2017-Jun-15 12:00N 49°59' W 001°47'713.6
2017-Jun-15 11:31N 49°58' W 001°57'3712.5
2017-Jun-15 08:33N 49°48' W 002°52'111.2
2017-Jun-15 08:27N 49°47' W 002°54'711.0
2017-Jun-15 07:49N 49°44' W 003°03'310.7
2017-Jun-15 07:30N 49°42' W 003°07'510.6
2017-Jun-15 07:01N 49°39' W 003°14'510.3
2017-Jun-15 06:30N 49°37' W 003°21'510.3
2017-Jun-15 06:00N 49°34' W 003°28'5 9.7
2017-Jun-15 05:31N 49°32' W 003°35'5 9.5
2017-Jun-15 05:00N 49°29' W 003°41'5 9.4
2017-Jun-15 04:31N 49°27' W 003°47'5 9.3
2017-Jun-15 04:00N 49°25' W 003°53'5 9.1
2017-Jun-15 03:31N 49°22' W 003°59'4 9.0
2017-Jun-15 03:01N 49°20' W 004°05'4 8.9
2017-Jun-15 02:31N 49°18' W 004°11'4 8.9
2017-Jun-15 02:01N 49°16' W 004°17'4 8.8
2017-Jun-15 01:30N 49°13' W 004°23'4 8.9
2017-Jun-15 01:01N 49°11' W 004°29'4 9.0
2017-Jun-15 00:31N 49°09' W 004°35'5 9.1
2017-Jun-15 00:00N 49°07' W 004°41'5 9.3
2017-Jun-14 23:30N 49°04' W 004°47'5 9.4
2017-Jun-14 23:01N 49°02' W 004°53'5 9.7
2017-Jun-14 22:30N 48°59' W 004°59'5 9.8
2017-Jun-14 22:01N 48°57' W 005°06'510.1
2017-Jun-14 21:30N 48°54' W 005°12'510.3
2017-Jun-14 21:01N 48°52' W 005°19'510.6
2017-Jun-14 20:30N 48°49' W 005°26'611.1
2017-Jun-14 20:00N 48°46' W 005°33'510.7
2017-Jun-14 19:30N 48°42' W 005°38'611.3
2017-Jun-14 19:00N 48°37' W 005°42'611.5
2017-Jun-14 18:30N 48°32' W 005°46'611.6
2017-Jun-14 18:00N 48°26' W 005°50'611.7
2017-Jun-14 17:30N 48°21' W 005°54'611.4
2017-Jun-14 17:00N 48°16' W 005°58'611.4
2017-Jun-14 16:30N 48°11' W 006°03'611.4
2017-Jun-14 16:00N 48°06' W 006°06'510.9
2017-Jun-14 15:30N 48°01' W 006°10'610.8
2017-Jun-14 15:00N 47°56' W 006°14'1010.3
2017-Jun-14 14:00N 47°47' W 006°21'12 9.7
2017-Jun-14 12:49N 47°37' W 006°29'17 9.4
2017-Jun-14 10:59N 47°22' W 006°41'  
Track history (hours):
 
Tides and Currents Weather Stations Pressure Air Temp Water Temp Dewpoint Dewpoint Depression Visibility Wind Speed Wind Dir Waves Ship Positions

Kathy C

Last reported at 2017-Jun-23 16:05 UTC. Time now 2017-Jun-23 22:26 UTC.
Position N 50°31' W 000°17'.

Length 106 m; draft 5.8 m.

Type: Cargo ship. MMSI: 235075591.

Date/timePositionNaut miles runAvg speedWind from/ knotsBaromVisibWave heightAir tempDewpointWater temp
2017-Jun-23 16:05N 50°31' W 000°17'111.8
2017-Jun-23 16:00N 50°31' W 000°16'612.1
2017-Jun-23 15:31N 50°32' W 000°07'612.2
2017-Jun-23 15:00N 50°33' E 000°03'1212.3
2017-Jun-23 14:00N 50°36' E 000°21'612.0
2017-Jun-23 13:29N 50°38' E 000°31'511.3
2017-Jun-23 13:00N 50°41' E 000°38'610.9
2017-Jun-23 12:30N 50°44' E 000°45'29 9.1
2017-Jun-23 09:19N 51°02' E 001°22'3 9.8
2017-Jun-23 09:00N 51°03' E 001°25'611.3
2017-Jun-23 08:30N 51°07' E 001°32'612.4
2017-Jun-23 08:00N 51°11' E 001°40'612.8
2017-Jun-23 07:30N 51°16' E 001°47'713.9
2017-Jun-23 07:00N 51°22' E 001°52'713.1
2017-Jun-23 06:30N 51°28' E 001°57'611.8
2017-Jun-23 06:00N 51°32' E 002°04'612.6
2017-Jun-23 05:30N 51°36' E 002°11'612.4
2017-Jun-23 05:00N 51°41' E 002°18'87 8.4
2017-Jun-22 18:37N 52°31' E 004°13'110.5
2017-Jun-22 18:30N 52°31' E 004°15'510.1
2017-Jun-22 18:00N 52°29' E 004°23'5 9.1
2017-Jun-22 17:30N 52°28' E 004°30'4 7.6
2017-Jun-22 17:00N 52°28' E 004°36'1 1.1
2017-Jun-22 16:30N 52°28' E 004°37'4 8.5
2017-Jun-22 16:00N 52°26' E 004°43'3 5.0
2017-Jun-22 15:26N 52°24' E 004°47'0 0.1
2017-Jun-22 14:59N 52°24' E 004°47'0 0.0
2017-Jun-22 14:26N 52°24' E 004°47'0 0.0
2017-Jun-22 13:29N 52°24' E 004°47'0 0.0
2017-Jun-22 12:59N 52°24' E 004°47'0 0.0
2017-Jun-22 12:29N 52°24' E 004°47'0 0.0
2017-Jun-22 11:59N 52°24' E 004°47'0 0.0
2017-Jun-22 11:29N 52°24' E 004°47'0 0.0
2017-Jun-22 10:59N 52°24' E 004°47'0 0.0
2017-Jun-22 10:29N 52°24' E 004°47'0 0.0
2017-Jun-22 09:56N 52°24' E 004°47'0 0.0
2017-Jun-22 09:29N 52°24' E 004°47'0 0.0
2017-Jun-22 08:59N 52°24' E 004°47'0 0.0
2017-Jun-22 08:29N 52°24' E 004°47'0 0.0
2017-Jun-22 07:59N 52°24' E 004°47'0 0.0
2017-Jun-22 07:29N 52°24' E 004°47'0 0.0
2017-Jun-22 06:59N 52°24' E 004°47'0 0.0
2017-Jun-22 06:29N 52°24' E 004°47'0 0.0
2017-Jun-22 05:59N 52°24' E 004°47'0 0.0
2017-Jun-22 05:23N 52°24' E 004°47'0 0.0
2017-Jun-22 04:53N 52°24' E 004°47'0 0.0
2017-Jun-22 04:29N 52°24' E 004°47'0 0.0
2017-Jun-22 03:59N 52°24' E 004°47'0 0.0
2017-Jun-22 03:26N 52°24' E 004°47'0 0.0
2017-Jun-22 02:59N 52°24' E 004°47'0 0.0
2017-Jun-22 02:29N 52°24' E 004°47'0 0.0
2017-Jun-22 01:59N 52°24' E 004°47'0 0.0
2017-Jun-22 01:29N 52°24' E 004°47'0 0.0
2017-Jun-22 00:59N 52°24' E 004°47'0 0.0
2017-Jun-22 00:26N 52°24' E 004°47'0 0.0
2017-Jun-21 23:59N 52°24' E 004°47'0 0.0
2017-Jun-21 23:29N 52°24' E 004°47'0 0.0
2017-Jun-21 22:59N 52°24' E 004°47'0 0.0
2017-Jun-21 22:29N 52°24' E 004°47'0 0.0
2017-Jun-21 21:59N 52°24' E 004°47'0 0.0
2017-Jun-21 21:29N 52°24' E 004°47'0 0.0
2017-Jun-21 20:59N 52°24' E 004°47'0 0.0
2017-Jun-21 20:26N 52°24' E 004°47'0 0.0
2017-Jun-21 19:59N 52°24' E 004°47'0 0.0
2017-Jun-21 19:29N 52°24' E 004°47'0 0.0
2017-Jun-21 18:59N 52°24' E 004°47'0 0.0
2017-Jun-21 18:29N 52°24' E 004°47'0 0.0
2017-Jun-21 17:59N 52°24' E 004°47'0 0.0
2017-Jun-21 17:29N 52°24' E 004°47'0 0.0
2017-Jun-21 16:59N 52°24' E 004°47'0 0.0
2017-Jun-21 16:29N 52°24' E 004°47'0 0.0
2017-Jun-21 15:59N 52°24' E 004°47'0 0.0
2017-Jun-21 15:29N 52°24' E 004°47'0 0.0
2017-Jun-21 14:59N 52°24' E 004°47'0 0.0
2017-Jun-21 14:29N 52°24' E 004°47'0 0.0
2017-Jun-21 13:29N 52°24' E 004°47'0 0.0
2017-Jun-21 12:59N 52°24' E 004°47'0 0.0
2017-Jun-21 12:29N 52°24' E 004°47'0 0.0
2017-Jun-21 11:59N 52°24' E 004°47'0 0.0
2017-Jun-21 11:29N 52°24' E 004°47'0 0.0
2017-Jun-21 10:59N 52°24' E 004°47'0 0.0
2017-Jun-21 10:29N 52°24' E 004°47'0 0.0
2017-Jun-21 09:53N 52°24' E 004°47'0 0.0
2017-Jun-21 09:29N 52°24' E 004°47'0 0.0
2017-Jun-21 08:56N 52°24' E 004°47'0 0.0
2017-Jun-21 08:26N 52°24' E 004°47'0 0.0
2017-Jun-21 07:59N 52°24' E 004°47'0 0.0
2017-Jun-21 07:26N 52°24' E 004°47'0 0.0
2017-Jun-21 06:59N 52°24' E 004°47'0 0.0
2017-Jun-21 06:29N 52°24' E 004°47'0 0.0
2017-Jun-21 05:56N 52°24' E 004°47'0 0.0
2017-Jun-21 05:29N 52°24' E 004°47'0 0.0
2017-Jun-21 04:56N 52°24' E 004°47'0 0.0
2017-Jun-21 04:29N 52°24' E 004°47'0 0.0
2017-Jun-21 03:59N 52°24' E 004°47'0 0.0
2017-Jun-21 03:17N 52°24' E 004°47'0 0.0
2017-Jun-21 02:59N 52°24' E 004°47'0 0.0
2017-Jun-21 02:29N 52°24' E 004°47'0 0.0
2017-Jun-21 01:59N 52°24' E 004°47'0 0.0
2017-Jun-21 01:29N 52°24' E 004°47'0 0.0
2017-Jun-21 00:59N 52°24' E 004°47'0 0.0
2017-Jun-21 00:29N 52°24' E 004°47'0 0.0
2017-Jun-20 23:59N 52°24' E 004°47'0 0.0
2017-Jun-20 23:29N 52°24' E 004°47'0 0.0
2017-Jun-20 22:59N 52°24' E 004°47'0 0.0
2017-Jun-20 22:29N 52°24' E 004°47'0 0.0
2017-Jun-20 21:59N 52°24' E 004°47'0 0.0
2017-Jun-20 21:29N 52°24' E 004°47'0 0.0
2017-Jun-20 20:59N 52°24' E 004°47'0 0.1
2017-Jun-20 20:31N 52°24' E 004°47'2 4.0
2017-Jun-20 20:00N 52°26' E 004°45'5 9.7
2017-Jun-20 19:30N 52°28' E 004°38'1 2.2
2017-Jun-20 19:00N 52°28' E 004°36'2 3.3
2017-Jun-20 18:30N 52°28' E 004°33'4 8.9
2017-Jun-20 18:01N 52°28' E 004°26'4 7.6
2017-Jun-20 17:30N 52°28' E 004°20'510.3
2017-Jun-20 17:01N 52°29' E 004°11'5 9.2
2017-Jun-20 16:30N 52°33' E 004°06'510.4
2017-Jun-20 16:00N 52°37' E 004°03'510.8
2017-Jun-20 15:30N 52°42' E 004°00'612.5
2017-Jun-20 15:00N 52°48' E 003°57'1511.2
2017-Jun-20 13:39N 53°02' E 004°10'411.5
2017-Jun-20 13:19N 53°04' E 004°14'711.3
2017-Jun-20 12:39N 53°09' E 004°23'510.7
2017-Jun-20 12:13N 53°13' E 004°28'310.6
2017-Jun-20 11:55N 53°16' E 004°30'511.3
2017-Jun-20 11:29N 53°21' E 004°33'711.9
2017-Jun-20 10:55N 53°27' E 004°37'512.4
2017-Jun-20 10:29N 53°30' E 004°45'813.3
2017-Jun-20 09:55N 53°32' E 004°56'713.6
2017-Jun-20 09:25N 53°35' E 005°07'713.5
2017-Jun-20 08:56N 53°37' E 005°18'613.5
2017-Jun-20 08:30N 53°39' E 005°27'713.4
2017-Jun-20 08:00N 53°41' E 005°38'712.9
2017-Jun-20 07:28N 53°43' E 005°49'612.6
2017-Jun-20 06:59N 53°45' E 005°59'612.2
2017-Jun-20 06:28N 53°46' E 006°09'711.9
2017-Jun-20 05:54N 53°49' E 006°19'511.4
2017-Jun-20 05:28N 53°50' E 006°28'3110.9
2017-Jun-20 02:38N 53°57' E 007°19'2110.0
2017-Jun-20 00:29N 53°52' E 007°54'612.6
2017-Jun-20 00:00N 53°50' E 008°04'713.8
2017-Jun-19 23:30N 53°45' E 008°12'714.3
2017-Jun-19 23:00N 53°41' E 008°21'714.4
2017-Jun-19 22:30N 53°36' E 008°30'510.0
2017-Jun-19 22:00N 53°32' E 008°34'611.7
2017-Jun-19 21:30N 53°26' E 008°29'612.0
2017-Jun-19 21:00N 53°20' E 008°30'0 0.2
2017-Jun-19 20:29N 53°20' E 008°30'0 0.0
2017-Jun-19 19:59N 53°20' E 008°30'0 0.0
2017-Jun-19 19:29N 53°20' E 008°30'0 0.0
2017-Jun-19 18:59N 53°20' E 008°30'0 0.0
2017-Jun-19 18:29N 53°20' E 008°30'0 0.0
2017-Jun-19 17:59N 53°20' E 008°30'0 0.0
2017-Jun-19 17:26N 53°20' E 008°30'0 0.0
2017-Jun-19 16:59N 53°20' E 008°30'0 0.0
2017-Jun-19 16:23N 53°20' E 008°30'0 0.0
2017-Jun-19 15:59N 53°20' E 008°30'0 0.0
2017-Jun-19 15:29N 53°20' E 008°30'0 0.0
2017-Jun-19 14:50N 53°20' E 008°30'0 0.0
2017-Jun-19 14:29N 53°20' E 008°30'0 0.0
2017-Jun-19 13:26N 53°20' E 008°30'0 0.0
2017-Jun-19 12:59N 53°20' E 008°30'0 0.0
2017-Jun-19 12:29N 53°20' E 008°30'0 0.0
2017-Jun-19 11:59N 53°20' E 008°30'0 0.0
2017-Jun-19 11:29N 53°20' E 008°30'0 0.0
2017-Jun-19 10:59N 53°20' E 008°30'0 0.0
2017-Jun-19 09:08N 53°20' E 008°30'0 0.0
2017-Jun-19 08:59N 53°20' E 008°30'0 0.0
2017-Jun-19 08:29N 53°20' E 008°30'0 0.0
2017-Jun-19 07:59N 53°20' E 008°30'0 0.0
2017-Jun-19 07:29N 53°20' E 008°30'0 0.0
2017-Jun-19 06:59N 53°20' E 008°30'0 0.0
2017-Jun-19 06:29N 53°20' E 008°30'0 0.0
2017-Jun-19 05:59N 53°20' E 008°30'0 0.0
2017-Jun-19 05:29N 53°20' E 008°30'0 0.0
2017-Jun-19 04:59N 53°20' E 008°30'0 0.0
2017-Jun-19 04:29N 53°20' E 008°30'0 0.0
2017-Jun-19 03:56N 53°20' E 008°30'0 0.0
2017-Jun-19 03:20N 53°20' E 008°30'0 0.0
2017-Jun-19 02:59N 53°20' E 008°30'0 0.0
2017-Jun-19 02:26N 53°20' E 008°30'0 0.0
2017-Jun-19 01:56N 53°20' E 008°30'0 0.0
2017-Jun-19 01:29N 53°20' E 008°30'0 0.0
2017-Jun-19 00:59N 53°20' E 008°30'0 0.0
2017-Jun-19 00:26N 53°20' E 008°30'0 0.0
2017-Jun-18 23:59N 53°20' E 008°30'0 0.0
2017-Jun-18 23:29N 53°20' E 008°30'0 0.0
2017-Jun-18 22:59N 53°20' E 008°30'0 0.0
2017-Jun-18 22:29N 53°20' E 008°30'0 0.0
2017-Jun-18 21:59N 53°20' E 008°30'0 0.0
2017-Jun-18 21:29N 53°20' E 008°30'0 0.0
2017-Jun-18 20:59N 53°20' E 008°30'0 0.0
2017-Jun-18 20:17N 53°20' E 008°30'0 0.0
2017-Jun-18 19:53N 53°20' E 008°30'0 0.0
2017-Jun-18 19:23N 53°20' E 008°30'0 0.0
2017-Jun-18 18:59N 53°20' E 008°30'0 0.0
2017-Jun-18 18:26N 53°20' E 008°30'0 0.0
2017-Jun-18 17:59N 53°20' E 008°30'0 0.0
2017-Jun-18 17:26N 53°20' E 008°30'0 0.0
2017-Jun-18 16:41N 53°20' E 008°30'0 0.0
2017-Jun-18 16:26N 53°20' E 008°30'0 0.0
2017-Jun-18 15:53N 53°20' E 008°30'0 0.0
2017-Jun-18 15:29N 53°20' E 008°30'0 0.0
2017-Jun-18 14:50N 53°20' E 008°30'0 0.0
2017-Jun-18 13:56N 53°20' E 008°30'0 0.0
2017-Jun-18 12:56N 53°20' E 008°30'0 0.0
2017-Jun-18 12:29N 53°20' E 008°30'0 0.0
2017-Jun-18 11:59N 53°20' E 008°30'0 0.0
2017-Jun-18 11:11N 53°20' E 008°30'0 0.0
2017-Jun-18 10:59N 53°20' E 008°30'0 0.0
2017-Jun-18 10:29N 53°20' E 008°30'0 0.0
2017-Jun-18 09:59N 53°20' E 008°30'0 0.0
2017-Jun-18 09:29N 53°20' E 008°30'0 0.0
2017-Jun-18 08:56N 53°20' E 008°30'0 0.0
2017-Jun-18 06:47N 53°20' E 008°30'0 0.0
2017-Jun-18 06:20N 53°20' E 008°30'0 0.0
2017-Jun-18 05:59N 53°20' E 008°30'0 0.0
2017-Jun-18 04:29N 53°20' E 008°30'0 0.0
2017-Jun-18 03:53N 53°20' E 008°30'0 0.0
2017-Jun-18 02:11N 53°20' E 008°30'0 0.0
2017-Jun-18 00:29N 53°20' E 008°30'0 0.0
2017-Jun-17 23:44N 53°20' E 008°30'0 0.0
2017-Jun-17 23:29N 53°20' E 008°30'0 0.0
2017-Jun-17 22:53N 53°20' E 008°30'0 0.0
2017-Jun-17 22:23N 53°20' E 008°30'0 0.0
2017-Jun-17 21:56N 53°20' E 008°30'0 0.0
2017-Jun-17 21:29N 53°20' E 008°30'0 0.0
2017-Jun-17 20:56N 53°20' E 008°30'0 0.0
2017-Jun-17 20:08N 53°20' E 008°30'0 0.0
2017-Jun-17 19:56N 53°20' E 008°30'0 0.0
2017-Jun-17 19:20N 53°20' E 008°30'0 0.0
2017-Jun-17 18:56N 53°20' E 008°30'0 0.0
2017-Jun-17 15:50N 53°20' E 008°30'0 0.0
2017-Jun-17 15:26N 53°20' E 008°30'0 0.0
2017-Jun-17 14:56N 53°20' E 008°30'0 0.0
2017-Jun-17 13:20N 53°20' E 008°30'0 0.8
2017-Jun-17 13:00N 53°21' E 008°30'4 8.8
2017-Jun-17 12:30N 53°25' E 008°30'5 9.9
2017-Jun-17 12:00N 53°30' E 008°31'4 7.6
2017-Jun-17 11:30N 53°33' E 008°33'5 9.5
2017-Jun-17 11:00N 53°37' E 008°28'5 9.3
2017-Jun-17 10:30N 53°40' E 008°22'5 9.1
2017-Jun-17 10:00N 53°43' E 008°16'4 9.0
2017-Jun-17 09:30N 53°46' E 008°11'5 9.0
2017-Jun-17 09:00N 53°49' E 008°06'134 9.9
2017-Jun-16 19:21N 53°08' E 004°30'710.4
2017-Jun-16 18:39N 53°02' E 004°25'1 9.7
2017-Jun-16 18:30N 53°01' E 004°23'5 9.6
2017-Jun-16 18:01N 52°56' E 004°20'62 8.8
2017-Jun-16 10:57N 52°10' E 003°12'4 9.4
2017-Jun-16 10:29N 52°07' E 003°07'5 9.6
2017-Jun-16 09:59N 52°03' E 003°02'5 9.9
2017-Jun-16 09:30N 51°59' E 002°57'3410.9
2017-Jun-16 06:21N 51°33' E 002°21'411.7
2017-Jun-16 05:59N 51°30' E 002°16'511.2
2017-Jun-16 05:31N 51°25' E 002°12'611.0
2017-Jun-16 05:00N 51°20' E 002°09'611.4
2017-Jun-16 04:30N 51°15' E 002°05'611.6
2017-Jun-16 04:00N 51°12' E 001°57'612.0
2017-Jun-16 03:30N 51°08' E 001°49'612.2
2017-Jun-16 03:01N 51°04' E 001°43'612.4
2017-Jun-16 02:31N 50°59' E 001°36'612.0
2017-Jun-16 02:01N 50°55' E 001°30'58 9.3
2017-Jun-15 19:49N 50°21' E 000°16'4 9.4
2017-Jun-15 19:27N 50°20' E 000°11'5 9.4
2017-Jun-15 18:57N 50°19' E 000°04'4 9.3
2017-Jun-15 18:31N 50°18' W 000°03'5 9.4
2017-Jun-15 18:00N 50°16' W 000°10'5 9.3
2017-Jun-15 17:30N 50°15' W 000°17'5 9.1
2017-Jun-15 17:01N 50°14' W 000°24'5 9.2
2017-Jun-15 16:31N 50°13' W 000°31'5 9.4
2017-Jun-15 16:00N 50°12' W 000°38'5 9.6
2017-Jun-15 15:30N 50°11' W 000°45'710.2
2017-Jun-15 14:49N 50°09' W 000°56'310.7
2017-Jun-15 14:30N 50°08' W 001°00'1411.6
2017-Jun-15 13:20N 50°04' W 001°21'412.5
2017-Jun-15 13:00N 50°03' W 001°27'612.8
2017-Jun-15 12:31N 50°01' W 001°37'713.3
2017-Jun-15 12:00N 49°59' W 001°47'713.6
2017-Jun-15 11:31N 49°58' W 001°57'3712.5
2017-Jun-15 08:33N 49°48' W 002°52'111.2
2017-Jun-15 08:27N 49°47' W 002°54'711.0
2017-Jun-15 07:49N 49°44' W 003°03'310.7
2017-Jun-15 07:30N 49°42' W 003°07'510.6
2017-Jun-15 07:01N 49°39' W 003°14'510.3
2017-Jun-15 06:30N 49°37' W 003°21'510.3
2017-Jun-15 06:00N 49°34' W 003°28'5 9.7
2017-Jun-15 05:31N 49°32' W 003°35'5 9.5
2017-Jun-15 05:00N 49°29' W 003°41'5 9.4
2017-Jun-15 04:31N 49°27' W 003°47'5 9.3
2017-Jun-15 04:00N 49°25' W 003°53'5 9.1
2017-Jun-15 03:31N 49°22' W 003°59'4 9.0
2017-Jun-15 03:01N 49°20' W 004°05'4 8.9
2017-Jun-15 02:31N 49°18' W 004°11'4 8.9
2017-Jun-15 02:01N 49°16' W 004°17'4 8.8
2017-Jun-15 01:30N 49°13' W 004°23'4 8.9
2017-Jun-15 01:01N 49°11' W 004°29'4 9.0
2017-Jun-15 00:31N 49°09' W 004°35'5 9.1
2017-Jun-15 00:00N 49°07' W 004°41'5 9.3
2017-Jun-14 23:30N 49°04' W 004°47'5 9.4
2017-Jun-14 23:01N 49°02' W 004°53'5 9.7
2017-Jun-14 22:30N 48°59' W 004°59'5 9.8
2017-Jun-14 22:01N 48°57' W 005°06'510.1
2017-Jun-14 21:30N 48°54' W 005°12'510.3
2017-Jun-14 21:01N 48°52' W 005°19'510.6
2017-Jun-14 20:30N 48°49' W 005°26'611.1
2017-Jun-14 20:00N 48°46' W 005°33'510.7
2017-Jun-14 19:30N 48°42' W 005°38'611.3
2017-Jun-14 19:00N 48°37' W 005°42'611.5
2017-Jun-14 18:30N 48°32' W 005°46'611.6
2017-Jun-14 18:00N 48°26' W 005°50'611.7
2017-Jun-14 17:30N 48°21' W 005°54'611.4
2017-Jun-14 17:00N 48°16' W 005°58'611.4
2017-Jun-14 16:30N 48°11' W 006°03'611.4
2017-Jun-14 16:00N 48°06' W 006°06'510.9
2017-Jun-14 15:30N 48°01' W 006°10'610.8
2017-Jun-14 15:00N 47°56' W 006°14'1010.3
2017-Jun-14 14:00N 47°47' W 006°21'12 9.7
2017-Jun-14 12:49N 47°37' W 006°29'17 9.4
2017-Jun-14 10:59N 47°22' W 006°41'  

Dump ship's entire track history